sensor_id;sensor_type;location;lat;lon;timestamp;P1;durP1;ratioP1;P2;durP2;ratioP2
43152;SDS011;28756;49.064;9.290;2022-07-29T00:01:21;2.67;;;2.40;;
43152;SDS011;28756;49.064;9.290;2022-07-29T00:03:47;3.78;;;2.63;;
43152;SDS011;28756;49.064;9.290;2022-07-29T00:06:13;7.53;;;2.40;;
43152;SDS011;28756;49.064;9.290;2022-07-29T00:08:39;2.70;;;2.50;;
43152;SDS011;28756;49.064;9.290;2022-07-29T00:11:05;4.30;;;2.63;;
43152;SDS011;28756;49.064;9.290;2022-07-29T00:13:31;3.22;;;2.80;;
43152;SDS011;28756;49.064;9.290;2022-07-29T00:15:56;2.60;;;2.40;;
43152;SDS011;28756;49.064;9.290;2022-07-29T00:18:23;3.65;;;2.90;;
43152;SDS011;28756;49.064;9.290;2022-07-29T00:21:00;2.70;;;2.50;;
43152;SDS011;28756;49.064;9.290;2022-07-29T00:23:34;3.60;;;2.35;;
43152;SDS011;28756;49.064;9.290;2022-07-29T00:26:00;3.78;;;2.92;;
43152;SDS011;28756;49.064;9.290;2022-07-29T00:28:26;3.88;;;2.30;;
43152;SDS011;28756;49.064;9.290;2022-07-29T00:30:56;2.72;;;2.53;;
43152;SDS011;28756;49.064;9.290;2022-07-29T00:33:22;2.67;;;2.47;;
43152;SDS011;28756;49.064;9.290;2022-07-29T00:35:48;3.20;;;2.90;;
43152;SDS011;28756;49.064;9.290;2022-07-29T00:38:15;4.63;;;3.17;;
43152;SDS011;28756;49.064;9.290;2022-07-29T00:40:43;3.72;;;3.17;;
43152;SDS011;28756;49.064;9.290;2022-07-29T00:43:10;3.45;;;2.85;;
43152;SDS011;28756;49.064;9.290;2022-07-29T00:45:38;5.63;;;3.28;;
43152;SDS011;28756;49.064;9.290;2022-07-29T00:48:05;3.20;;;2.70;;
43152;SDS011;28756;49.064;9.290;2022-07-29T00:50:33;4.68;;;2.95;;
43152;SDS011;28756;49.064;9.290;2022-07-29T00:53:00;3.42;;;2.92;;
43152;SDS011;28756;49.064;9.290;2022-07-29T00:55:28;4.43;;;3.00;;
43152;SDS011;28756;49.064;9.290;2022-07-29T00:57:54;2.85;;;2.60;;
43152;SDS011;28756;49.064;9.290;2022-07-29T01:00:22;2.80;;;2.50;;
43152;SDS011;28756;49.064;9.290;2022-07-29T01:02:50;3.08;;;2.78;;
43152;SDS011;28756;49.064;9.290;2022-07-29T01:05:20;3.45;;;3.03;;
43152;SDS011;28756;49.064;9.290;2022-07-29T01:07:49;3.38;;;3.08;;
43152;SDS011;28756;49.064;9.290;2022-07-29T01:10:18;3.13;;;2.65;;
43152;SDS011;28756;49.064;9.290;2022-07-29T01:12:46;4.30;;;3.00;;
43152;SDS011;28756;49.064;9.290;2022-07-29T01:15:15;2.90;;;2.55;;
43152;SDS011;28756;49.064;9.290;2022-07-29T01:20:31;3.25;;;2.72;;
43152;SDS011;28756;49.064;9.290;2022-07-29T01:26:34;3.55;;;2.65;;
43152;SDS011;28756;49.064;9.290;2022-07-29T01:29:11;3.17;;;2.40;;
43152;SDS011;28756;49.064;9.290;2022-07-29T01:31:54;3.17;;;2.83;;
43152;SDS011;28756;49.064;9.290;2022-07-29T01:39:58;3.13;;;2.70;;
43152;SDS011;28756;49.064;9.290;2022-07-29T01:48:00;3.47;;;2.70;;
43152;SDS011;28756;49.064;9.290;2022-07-29T01:50:49;3.30;;;2.63;;
43152;SDS011;28756;49.064;9.290;2022-07-29T01:53:26;4.22;;;3.05;;
43152;SDS011;28756;49.064;9.290;2022-07-29T01:56:01;4.75;;;3.30;;
43152;SDS011;28756;49.064;9.290;2022-07-29T01:58:28;3.40;;;3.10;;
43152;SDS011;28756;49.064;9.290;2022-07-29T02:00:56;3.78;;;3.22;;
43152;SDS011;28756;49.064;9.290;2022-07-29T02:03:24;3.28;;;2.40;;
43152;SDS011;28756;49.064;9.290;2022-07-29T02:05:52;3.20;;;2.90;;
43152;SDS011;28756;49.064;9.290;2022-07-29T02:08:21;5.05;;;3.00;;
43152;SDS011;28756;49.064;9.290;2022-07-29T02:10:49;3.25;;;2.80;;
43152;SDS011;28756;49.064;9.290;2022-07-29T02:13:16;3.67;;;2.95;;
43152;SDS011;28756;49.064;9.290;2022-07-29T02:15:46;3.40;;;3.10;;
43152;SDS011;28756;49.064;9.290;2022-07-29T02:18:17;2.90;;;2.60;;
43152;SDS011;28756;49.064;9.290;2022-07-29T02:20:50;3.58;;;2.90;;
43152;SDS011;28756;49.064;9.290;2022-07-29T02:23:20;4.22;;;2.70;;
43152;SDS011;28756;49.064;9.290;2022-07-29T02:25:49;3.50;;;3.20;;
43152;SDS011;28756;49.064;9.290;2022-07-29T02:28:18;3.15;;;2.67;;
43152;SDS011;28756;49.064;9.290;2022-07-29T02:30:45;3.08;;;2.78;;
43152;SDS011;28756;49.064;9.290;2022-07-29T02:33:13;3.30;;;2.88;;
43152;SDS011;28756;49.064;9.290;2022-07-29T02:35:41;4.35;;;3.00;;
43152;SDS011;28756;49.064;9.290;2022-07-29T02:38:12;2.95;;;2.70;;
43152;SDS011;28756;49.064;9.290;2022-07-29T02:41:03;5.22;;;3.53;;
43152;SDS011;28756;49.064;9.290;2022-07-29T02:43:36;3.20;;;2.90;;
43152;SDS011;28756;49.064;9.290;2022-07-29T02:46:06;3.17;;;2.83;;
43152;SDS011;28756;49.064;9.290;2022-07-29T02:48:51;3.30;;;2.80;;
43152;SDS011;28756;49.064;9.290;2022-07-29T02:51:54;3.78;;;2.72;;
43152;SDS011;28756;49.064;9.290;2022-07-29T02:54:28;3.28;;;2.97;;
43152;SDS011;28756;49.064;9.290;2022-07-29T02:57:19;3.22;;;2.92;;
43152;SDS011;28756;49.064;9.290;2022-07-29T03:00:04;3.75;;;3.30;;
43152;SDS011;28756;49.064;9.290;2022-07-29T03:02:34;4.18;;;2.97;;
43152;SDS011;28756;49.064;9.290;2022-07-29T03:05:04;5.22;;;3.10;;
43152;SDS011;28756;49.064;9.290;2022-07-29T03:07:34;3.88;;;3.47;;
43152;SDS011;28756;49.064;9.290;2022-07-29T03:10:02;4.43;;;3.30;;
43152;SDS011;28756;49.064;9.290;2022-07-29T03:12:31;3.47;;;2.83;;
43152;SDS011;28756;49.064;9.290;2022-07-29T03:14:57;3.28;;;2.70;;
43152;SDS011;28756;49.064;9.290;2022-07-29T03:17:25;3.83;;;3.35;;
43152;SDS011;28756;49.064;9.290;2022-07-29T03:19:51;3.50;;;3.20;;
43152;SDS011;28756;49.064;9.290;2022-07-29T03:22:18;3.38;;;3.08;;
43152;SDS011;28756;49.064;9.290;2022-07-29T03:24:44;4.05;;;3.35;;
43152;SDS011;28756;49.064;9.290;2022-07-29T03:27:10;3.35;;;3.05;;
43152;SDS011;28756;49.064;9.290;2022-07-29T03:29:36;5.95;;;3.30;;
43152;SDS011;28756;49.064;9.290;2022-07-29T03:32:02;3.70;;;3.30;;
43152;SDS011;28756;49.064;9.290;2022-07-29T03:34:30;3.53;;;3.20;;
43152;SDS011;28756;49.064;9.290;2022-07-29T03:36:56;5.72;;;2.90;;
43152;SDS011;28756;49.064;9.290;2022-07-29T03:39:23;3.83;;;3.40;;
43152;SDS011;28756;49.064;9.290;2022-07-29T03:41:55;3.63;;;3.33;;
43152;SDS011;28756;49.064;9.290;2022-07-29T03:44:23;4.68;;;3.30;;
43152;SDS011;28756;49.064;9.290;2022-07-29T03:46:51;5.35;;;3.70;;
43152;SDS011;28756;49.064;9.290;2022-07-29T03:49:19;3.25;;;2.90;;
43152;SDS011;28756;49.064;9.290;2022-07-29T03:51:57;3.75;;;3.10;;
43152;SDS011;28756;49.064;9.290;2022-07-29T03:54:41;3.40;;;3.10;;
43152;SDS011;28756;49.064;9.290;2022-07-29T03:57:12;3.40;;;3.10;;
43152;SDS011;28756;49.064;9.290;2022-07-29T03:59:48;4.40;;;3.25;;
43152;SDS011;28756;49.064;9.290;2022-07-29T04:02:16;4.95;;;3.45;;
43152;SDS011;28756;49.064;9.290;2022-07-29T04:04:42;4.10;;;3.35;;
43152;SDS011;28756;49.064;9.290;2022-07-29T04:07:14;4.35;;;2.83;;
43152;SDS011;28756;49.064;9.290;2022-07-29T04:09:45;3.28;;;2.92;;
43152;SDS011;28756;49.064;9.290;2022-07-29T04:12:11;3.38;;;2.75;;
43152;SDS011;28756;49.064;9.290;2022-07-29T04:14:37;4.05;;;3.30;;
43152;SDS011;28756;49.064;9.290;2022-07-29T04:17:03;3.72;;;3.30;;
43152;SDS011;28756;49.064;9.290;2022-07-29T04:19:29;5.30;;;3.22;;
43152;SDS011;28756;49.064;9.290;2022-07-29T04:21:59;4.03;;;3.08;;
43152;SDS011;28756;49.064;9.290;2022-07-29T04:24:39;4.68;;;3.38;;
43152;SDS011;28756;49.064;9.290;2022-07-29T04:29:43;3.50;;;3.05;;
43152;SDS011;28756;49.064;9.290;2022-07-29T04:32:14;5.47;;;3.42;;
43152;SDS011;28756;49.064;9.290;2022-07-29T04:34:45;3.25;;;2.95;;
43152;SDS011;28756;49.064;9.290;2022-07-29T04:37:16;4.40;;;3.13;;
43152;SDS011;28756;49.064;9.290;2022-07-29T04:39:42;3.22;;;2.92;;
43152;SDS011;28756;49.064;9.290;2022-07-29T04:42:14;3.38;;;3.08;;
43152;SDS011;28756;49.064;9.290;2022-07-29T04:44:40;3.42;;;3.08;;
43152;SDS011;28756;49.064;9.290;2022-07-29T04:47:07;3.10;;;2.80;;
43152;SDS011;28756;49.064;9.290;2022-07-29T04:49:33;3.53;;;3.22;;
43152;SDS011;28756;49.064;9.290;2022-07-29T04:51:59;5.07;;;3.40;;
43152;SDS011;28756;49.064;9.290;2022-07-29T04:54:25;4.78;;;3.47;;
43152;SDS011;28756;49.064;9.290;2022-07-29T04:56:53;3.40;;;3.10;;
43152;SDS011;28756;49.064;9.290;2022-07-29T04:59:19;4.07;;;3.05;;
43152;SDS011;28756;49.064;9.290;2022-07-29T05:01:45;4.90;;;3.42;;
43152;SDS011;28756;49.064;9.290;2022-07-29T05:04:11;4.28;;;3.50;;
43152;SDS011;28756;49.064;9.290;2022-07-29T05:06:36;3.40;;;3.10;;
43152;SDS011;28756;49.064;9.290;2022-07-29T05:09:02;4.45;;;3.47;;
43152;SDS011;28756;49.064;9.290;2022-07-29T05:11:28;3.85;;;3.45;;
43152;SDS011;28756;49.064;9.290;2022-07-29T05:13:53;3.20;;;2.90;;
43152;SDS011;28756;49.064;9.290;2022-07-29T05:16:19;3.45;;;2.65;;
43152;SDS011;28756;49.064;9.290;2022-07-29T05:18:46;3.90;;;3.58;;
43152;SDS011;28756;49.064;9.290;2022-07-29T05:21:11;3.13;;;2.92;;
43152;SDS011;28756;49.064;9.290;2022-07-29T05:23:37;5.40;;;3.00;;
43152;SDS011;28756;49.064;9.290;2022-07-29T05:26:03;3.58;;;3.25;;
43152;SDS011;28756;49.064;9.290;2022-07-29T05:28:29;3.28;;;2.97;;
43152;SDS011;28756;49.064;9.290;2022-07-29T05:30:59;3.60;;;3.30;;
43152;SDS011;28756;49.064;9.290;2022-07-29T05:33:25;3.40;;;3.00;;
43152;SDS011;28756;49.064;9.290;2022-07-29T05:35:51;3.75;;;3.10;;
43152;SDS011;28756;49.064;9.290;2022-07-29T05:38:17;3.80;;;3.22;;
43152;SDS011;28756;49.064;9.290;2022-07-29T05:40:42;3.60;;;3.30;;
43152;SDS011;28756;49.064;9.290;2022-07-29T05:43:08;3.17;;;2.70;;
43152;SDS011;28756;49.064;9.290;2022-07-29T05:45:34;2.92;;;2.58;;
43152;SDS011;28756;49.064;9.290;2022-07-29T05:47:59;4.60;;;2.95;;
43152;SDS011;28756;49.064;9.290;2022-07-29T05:50:25;3.50;;;3.00;;
43152;SDS011;28756;49.064;9.290;2022-07-29T05:52:51;3.47;;;2.92;;
43152;SDS011;28756;49.064;9.290;2022-07-29T05:55:17;4.63;;;3.10;;
43152;SDS011;28756;49.064;9.290;2022-07-29T05:57:43;4.35;;;3.30;;
43152;SDS011;28756;49.064;9.290;2022-07-29T06:00:10;3.47;;;3.15;;
43152;SDS011;28756;49.064;9.290;2022-07-29T06:02:36;3.20;;;2.90;;
43152;SDS011;28756;49.064;9.290;2022-07-29T06:05:02;6.18;;;3.55;;
43152;SDS011;28756;49.064;9.290;2022-07-29T06:07:28;7.47;;;4.07;;
43152;SDS011;28756;49.064;9.290;2022-07-29T06:09:54;9.50;;;3.80;;
43152;SDS011;28756;49.064;9.290;2022-07-29T06:12:19;6.25;;;3.40;;
43152;SDS011;28756;49.064;9.290;2022-07-29T06:14:45;4.30;;;3.13;;
43152;SDS011;28756;49.064;9.290;2022-07-29T06:17:11;6.75;;;3.33;;
43152;SDS011;28756;49.064;9.290;2022-07-29T06:19:37;3.45;;;3.15;;
43152;SDS011;28756;49.064;9.290;2022-07-29T06:22:02;3.95;;;3.60;;
43152;SDS011;28756;49.064;9.290;2022-07-29T06:24:29;3.70;;;3.40;;
43152;SDS011;28756;49.064;9.290;2022-07-29T06:26:54;3.50;;;3.17;;
43152;SDS011;28756;49.064;9.290;2022-07-29T06:29:20;4.43;;;3.30;;
43152;SDS011;28756;49.064;9.290;2022-07-29T06:31:46;3.22;;;2.90;;
43152;SDS011;28756;49.064;9.290;2022-07-29T06:34:12;5.60;;;3.50;;
43152;SDS011;28756;49.064;9.290;2022-07-29T06:36:38;4.57;;;3.10;;
43152;SDS011;28756;49.064;9.290;2022-07-29T06:39:05;3.70;;;2.85;;
43152;SDS011;28756;49.064;9.290;2022-07-29T06:41:32;3.78;;;3.25;;
43152;SDS011;28756;49.064;9.290;2022-07-29T06:43:58;4.45;;;2.97;;
43152;SDS011;28756;49.064;9.290;2022-07-29T06:46:24;3.97;;;3.13;;
43152;SDS011;28756;49.064;9.290;2022-07-29T06:48:50;3.08;;;2.78;;
43152;SDS011;28756;49.064;9.290;2022-07-29T06:51:16;3.13;;;2.70;;
43152;SDS011;28756;49.064;9.290;2022-07-29T06:53:42;4.80;;;2.70;;
43152;SDS011;28756;49.064;9.290;2022-07-29T06:56:08;2.15;;;1.95;;
43152;SDS011;28756;49.064;9.290;2022-07-29T06:58:34;2.47;;;1.90;;
43152;SDS011;28756;49.064;9.290;2022-07-29T07:01:02;3.95;;;2.35;;
43152;SDS011;28756;49.064;9.290;2022-07-29T07:03:29;3.33;;;2.33;;
43152;SDS011;28756;49.064;9.290;2022-07-29T07:05:56;2.63;;;2.22;;
43152;SDS011;28756;49.064;9.290;2022-07-29T07:08:22;2.38;;;2.03;;
43152;SDS011;28756;49.064;9.290;2022-07-29T07:10:50;2.53;;;2.00;;
43152;SDS011;28756;49.064;9.290;2022-07-29T07:13:17;2.40;;;1.95;;
43152;SDS011;28756;49.064;9.290;2022-07-29T07:15:43;2.33;;;1.90;;
43152;SDS011;28756;49.064;9.290;2022-07-29T07:18:10;1.80;;;1.70;;
43152;SDS011;28756;49.064;9.290;2022-07-29T07:20:36;2.00;;;1.90;;
43152;SDS011;28756;49.064;9.290;2022-07-29T07:23:06;1.73;;;1.63;;
43152;SDS011;28756;49.064;9.290;2022-07-29T07:25:31;1.95;;;1.75;;
43152;SDS011;28756;49.064;9.290;2022-07-29T07:27:57;3.10;;;1.70;;
43152;SDS011;28756;49.064;9.290;2022-07-29T07:30:23;1.85;;;1.70;;
43152;SDS011;28756;49.064;9.290;2022-07-29T07:32:49;2.58;;;1.90;;
43152;SDS011;28756;49.064;9.290;2022-07-29T07:35:15;1.63;;;1.52;;
43152;SDS011;28756;49.064;9.290;2022-07-29T07:37:41;2.15;;;1.65;;
43152;SDS011;28756;49.064;9.290;2022-07-29T07:40:07;2.08;;;1.70;;
43152;SDS011;28756;49.064;9.290;2022-07-29T07:42:36;1.75;;;1.60;;
43152;SDS011;28756;49.064;9.290;2022-07-29T07:45:03;3.38;;;1.83;;
43152;SDS011;28756;49.064;9.290;2022-07-29T07:47:30;1.98;;;1.80;;
43152;SDS011;28756;49.064;9.290;2022-07-29T07:49:57;1.95;;;1.70;;
43152;SDS011;28756;49.064;9.290;2022-07-29T07:52:22;2.30;;;1.80;;
43152;SDS011;28756;49.064;9.290;2022-07-29T07:54:48;1.88;;;1.70;;
43152;SDS011;28756;49.064;9.290;2022-07-29T07:57:15;2.13;;;1.70;;
43152;SDS011;28756;49.064;9.290;2022-07-29T07:59:40;1.98;;;1.80;;
43152;SDS011;28756;49.064;9.290;2022-07-29T08:02:06;2.03;;;1.83;;
43152;SDS011;28756;49.064;9.290;2022-07-29T08:04:36;2.05;;;1.85;;
43152;SDS011;28756;49.064;9.290;2022-07-29T08:07:03;2.85;;;1.95;;
43152;SDS011;28756;49.064;9.290;2022-07-29T08:09:29;3.08;;;1.90;;
43152;SDS011;28756;49.064;9.290;2022-07-29T08:11:55;2.20;;;1.90;;
43152;SDS011;28756;49.064;9.290;2022-07-29T08:14:23;2.65;;;1.83;;
43152;SDS011;28756;49.064;9.290;2022-07-29T08:16:49;2.38;;;1.92;;
43152;SDS011;28756;49.064;9.290;2022-07-29T08:19:15;2.88;;;2.10;;
43152;SDS011;28756;49.064;9.290;2022-07-29T08:21:41;2.40;;;2.20;;
43152;SDS011;28756;49.064;9.290;2022-07-29T08:24:07;2.80;;;1.95;;
43152;SDS011;28756;49.064;9.290;2022-07-29T08:26:51;4.10;;;2.20;;
43152;SDS011;28756;49.064;9.290;2022-07-29T08:29:17;3.50;;;2.00;;
43152;SDS011;28756;49.064;9.290;2022-07-29T08:31:42;3.10;;;2.10;;
43152;SDS011;28756;49.064;9.290;2022-07-29T08:34:08;2.47;;;1.85;;
43152;SDS011;28756;49.064;9.290;2022-07-29T08:36:34;2.38;;;2.03;;
43152;SDS011;28756;49.064;9.290;2022-07-29T08:39:00;2.65;;;2.03;;
43152;SDS011;28756;49.064;9.290;2022-07-29T08:41:27;3.22;;;2.20;;
43152;SDS011;28756;49.064;9.290;2022-07-29T08:43:53;3.42;;;1.95;;
43152;SDS011;28756;49.064;9.290;2022-07-29T08:46:19;2.80;;;2.10;;
43152;SDS011;28756;49.064;9.290;2022-07-29T08:48:47;2.55;;;2.10;;
43152;SDS011;28756;49.064;9.290;2022-07-29T08:51:17;2.28;;;1.95;;
43152;SDS011;28756;49.064;9.290;2022-07-29T08:53:45;3.55;;;2.47;;
43152;SDS011;28756;49.064;9.290;2022-07-29T08:56:13;2.35;;;2.00;;
43152;SDS011;28756;49.064;9.290;2022-07-29T08:58:44;2.58;;;2.30;;
43152;SDS011;28756;49.064;9.290;2022-07-29T09:01:14;2.60;;;1.95;;
43152;SDS011;28756;49.064;9.290;2022-07-29T09:03:46;2.25;;;1.88;;
43152;SDS011;28756;49.064;9.290;2022-07-29T09:06:17;3.17;;;2.38;;
43152;SDS011;28756;49.064;9.290;2022-07-29T09:08:44;3.42;;;2.33;;
43152;SDS011;28756;49.064;9.290;2022-07-29T09:11:13;2.35;;;2.15;;
43152;SDS011;28756;49.064;9.290;2022-07-29T09:13:40;2.50;;;2.30;;
43152;SDS011;28756;49.064;9.290;2022-07-29T09:16:05;5.55;;;2.90;;
43152;SDS011;28756;49.064;9.290;2022-07-29T09:21:09;3.65;;;2.25;;
43152;SDS011;28756;49.064;9.290;2022-07-29T09:24:00;3.97;;;2.10;;
43152;SDS011;28756;49.064;9.290;2022-07-29T09:26:35;3.00;;;2.70;;
43152;SDS011;28756;49.064;9.290;2022-07-29T09:29:08;3.45;;;2.60;;
43152;SDS011;28756;49.064;9.290;2022-07-29T09:31:49;2.80;;;2.10;;
43152;SDS011;28756;49.064;9.290;2022-07-29T09:34:21;6.05;;;2.60;;
43152;SDS011;28756;49.064;9.290;2022-07-29T09:36:50;3.03;;;2.65;;
43152;SDS011;28756;49.064;9.290;2022-07-29T09:42:05;3.53;;;2.60;;
43152;SDS011;28756;49.064;9.290;2022-07-29T09:44:43;6.15;;;3.03;;
43152;SDS011;28756;49.064;9.290;2022-07-29T09:47:13;5.10;;;2.35;;
43152;SDS011;28756;49.064;9.290;2022-07-29T09:49:54;3.22;;;2.58;;
43152;SDS011;28756;49.064;9.290;2022-07-29T09:52:25;2.55;;;2.35;;
43152;SDS011;28756;49.064;9.290;2022-07-29T09:55:07;3.67;;;2.65;;
43152;SDS011;28756;49.064;9.290;2022-07-29T09:57:35;6.10;;;2.88;;
43152;SDS011;28756;49.064;9.290;2022-07-29T10:00:03;4.22;;;2.70;;
43152;SDS011;28756;49.064;9.290;2022-07-29T10:02:36;2.92;;;2.60;;
43152;SDS011;28756;49.064;9.290;2022-07-29T10:05:06;3.78;;;2.60;;
43152;SDS011;28756;49.064;9.290;2022-07-29T10:07:57;2.80;;;2.50;;
43152;SDS011;28756;49.064;9.290;2022-07-29T10:10:32;4.63;;;2.45;;
43152;SDS011;28756;49.064;9.290;2022-07-29T10:13:03;5.22;;;2.95;;
43152;SDS011;28756;49.064;9.290;2022-07-29T10:15:36;5.95;;;2.90;;
43152;SDS011;28756;49.064;9.290;2022-07-29T10:18:05;3.67;;;3.10;;
43152;SDS011;28756;49.064;9.290;2022-07-29T10:20:33;3.90;;;2.65;;
43152;SDS011;28756;49.064;9.290;2022-07-29T10:22:59;3.08;;;2.50;;
43152;SDS011;28756;49.064;9.290;2022-07-29T10:25:25;3.15;;;2.80;;
43152;SDS011;28756;49.064;9.290;2022-07-29T10:27:52;4.13;;;2.60;;
43152;SDS011;28756;49.064;9.290;2022-07-29T10:30:19;3.60;;;2.72;;
43152;SDS011;28756;49.064;9.290;2022-07-29T10:39:05;3.22;;;2.47;;
43152;SDS011;28756;49.064;9.290;2022-07-29T10:42:24;3.17;;;2.30;;
43152;SDS011;28756;49.064;9.290;2022-07-29T10:44:52;2.83;;;2.63;;
43152;SDS011;28756;49.064;9.290;2022-07-29T10:47:20;4.07;;;2.97;;
43152;SDS011;28756;49.064;9.290;2022-07-29T10:49:57;3.83;;;2.63;;
43152;SDS011;28756;49.064;9.290;2022-07-29T10:52:24;2.63;;;2.42;;
43152;SDS011;28756;49.064;9.290;2022-07-29T10:55:30;6.32;;;2.60;;
43152;SDS011;28756;49.064;9.290;2022-07-29T10:58:17;2.78;;;2.47;;
43152;SDS011;28756;49.064;9.290;2022-07-29T11:00:53;7.55;;;2.45;;
43152;SDS011;28756;49.064;9.290;2022-07-29T11:06:13;2.95;;;2.42;;
43152;SDS011;28756;49.064;9.290;2022-07-29T11:08:40;3.58;;;2.15;;
43152;SDS011;28756;49.064;9.290;2022-07-29T11:13:45;3.67;;;2.50;;
43152;SDS011;28756;49.064;9.290;2022-07-29T11:16:13;5.88;;;2.30;;
43152;SDS011;28756;49.064;9.290;2022-07-29T11:19:18;3.97;;;2.47;;
43152;SDS011;28756;49.064;9.290;2022-07-29T11:21:38;3.33;;;2.50;;
43152;SDS011;28756;49.064;9.290;2022-07-29T11:24:15;3.78;;;2.65;;
43152;SDS011;28756;49.064;9.290;2022-07-29T11:27:04;3.67;;;2.65;;
43152;SDS011;28756;49.064;9.290;2022-07-29T11:29:39;3.75;;;2.55;;
43152;SDS011;28756;49.064;9.290;2022-07-29T11:32:28;2.92;;;2.38;;
43152;SDS011;28756;49.064;9.290;2022-07-29T11:35:13;4.25;;;2.17;;
43152;SDS011;28756;49.064;9.290;2022-07-29T11:37:42;5.70;;;2.33;;
43152;SDS011;28756;49.064;9.290;2022-07-29T11:40:10;5.20;;;2.60;;
43152;SDS011;28756;49.064;9.290;2022-07-29T11:42:39;3.65;;;2.60;;
43152;SDS011;28756;49.064;9.290;2022-07-29T11:45:16;3.28;;;2.50;;
43152;SDS011;28756;49.064;9.290;2022-07-29T11:50:14;7.03;;;2.75;;
43152;SDS011;28756;49.064;9.290;2022-07-29T11:53:00;2.88;;;2.40;;
43152;SDS011;28756;49.064;9.290;2022-07-29T11:55:28;3.25;;;2.70;;
43152;SDS011;28756;49.064;9.290;2022-07-29T11:57:55;2.78;;;2.55;;
43152;SDS011;28756;49.064;9.290;2022-07-29T12:00:26;3.70;;;2.63;;
43152;SDS011;28756;49.064;9.290;2022-07-29T12:02:59;3.20;;;2.70;;
43152;SDS011;28756;49.064;9.290;2022-07-29T12:05:40;2.78;;;2.47;;
43152;SDS011;28756;49.064;9.290;2022-07-29T12:10:38;3.80;;;2.80;;
43152;SDS011;28756;49.064;9.290;2022-07-29T12:13:05;2.80;;;2.50;;
43152;SDS011;28756;49.064;9.290;2022-07-29T12:15:31;4.38;;;2.58;;
43152;SDS011;28756;49.064;9.290;2022-07-29T12:17:57;4.55;;;2.40;;
43152;SDS011;28756;49.064;9.290;2022-07-29T12:20:27;2.67;;;2.25;;
43152;SDS011;28756;49.064;9.290;2022-07-29T12:22:55;4.85;;;2.70;;
43152;SDS011;28756;49.064;9.290;2022-07-29T12:25:21;3.15;;;2.80;;
43152;SDS011;28756;49.064;9.290;2022-07-29T12:27:58;2.88;;;2.35;;
43152;SDS011;28756;49.064;9.290;2022-07-29T12:30:36;3.70;;;2.60;;
43152;SDS011;28756;49.064;9.290;2022-07-29T12:35:43;4.50;;;2.45;;
43152;SDS011;28756;49.064;9.290;2022-07-29T12:38:13;4.20;;;2.58;;
43152;SDS011;28756;49.064;9.290;2022-07-29T12:40:40;2.72;;;2.40;;
43152;SDS011;28756;49.064;9.290;2022-07-29T12:43:20;3.65;;;2.00;;
43152;SDS011;28756;49.064;9.290;2022-07-29T12:45:49;4.30;;;2.53;;
43152;SDS011;28756;49.064;9.290;2022-07-29T12:48:31;4.47;;;2.65;;
43152;SDS011;28756;49.064;9.290;2022-07-29T12:50:59;5.30;;;2.50;;
43152;SDS011;28756;49.064;9.290;2022-07-29T12:53:27;6.78;;;2.60;;
43152;SDS011;28756;49.064;9.290;2022-07-29T12:55:54;2.40;;;2.08;;
43152;SDS011;28756;49.064;9.290;2022-07-29T12:58:28;2.60;;;2.03;;
43152;SDS011;28756;49.064;9.290;2022-07-29T13:00:59;2.40;;;2.10;;
43152;SDS011;28756;49.064;9.290;2022-07-29T13:03:43;2.13;;;1.98;;
43152;SDS011;28756;49.064;9.290;2022-07-29T13:09:04;5.70;;;2.80;;
43152;SDS011;28756;49.064;9.290;2022-07-29T13:14:10;4.50;;;2.92;;
43152;SDS011;28756;49.064;9.290;2022-07-29T13:19:41;4.82;;;2.85;;
43152;SDS011;28756;49.064;9.290;2022-07-29T13:22:30;4.68;;;2.55;;
43152;SDS011;28756;49.064;9.290;2022-07-29T13:24:56;3.70;;;2.75;;
43152;SDS011;28756;49.064;9.290;2022-07-29T13:27:30;3.58;;;2.40;;
43152;SDS011;28756;49.064;9.290;2022-07-29T13:29:58;6.97;;;2.90;;
43152;SDS011;28756;49.064;9.290;2022-07-29T13:32:29;3.30;;;3.00;;
43152;SDS011;28756;49.064;9.290;2022-07-29T13:34:56;3.85;;;2.97;;
43152;SDS011;28756;49.064;9.290;2022-07-29T13:37:25;3.13;;;2.83;;
43152;SDS011;28756;49.064;9.290;2022-07-29T13:39:54;3.53;;;2.70;;
43152;SDS011;28756;49.064;9.290;2022-07-29T13:42:22;4.75;;;3.00;;
43152;SDS011;28756;49.064;9.290;2022-07-29T13:44:49;5.25;;;3.05;;
43152;SDS011;28756;49.064;9.290;2022-07-29T13:47:16;3.30;;;2.55;;
43152;SDS011;28756;49.064;9.290;2022-07-29T13:49:43;6.10;;;2.35;;
43152;SDS011;28756;49.064;9.290;2022-07-29T13:52:09;7.20;;;2.65;;
43152;SDS011;28756;49.064;9.290;2022-07-29T13:54:35;6.40;;;2.70;;
43152;SDS011;28756;49.064;9.290;2022-07-29T13:57:02;3.20;;;2.50;;
43152;SDS011;28756;49.064;9.290;2022-07-29T13:59:34;5.72;;;2.33;;
43152;SDS011;28756;49.064;9.290;2022-07-29T14:02:09;4.00;;;2.35;;
43152;SDS011;28756;49.064;9.290;2022-07-29T14:04:37;2.67;;;2.00;;
43152;SDS011;28756;49.064;9.290;2022-07-29T14:07:03;5.82;;;2.28;;
43152;SDS011;28756;49.064;9.290;2022-07-29T14:09:29;2.40;;;2.10;;
43152;SDS011;28756;49.064;9.290;2022-07-29T14:11:55;3.80;;;2.20;;
43152;SDS011;28756;49.064;9.290;2022-07-29T14:14:21;1.92;;;1.70;;
43152;SDS011;28756;49.064;9.290;2022-07-29T14:16:47;2.50;;;1.92;;
43152;SDS011;28756;49.064;9.290;2022-07-29T14:19:12;3.13;;;1.90;;
43152;SDS011;28756;49.064;9.290;2022-07-29T14:21:38;3.50;;;2.28;;
43152;SDS011;28756;49.064;9.290;2022-07-29T14:24:07;2.45;;;1.95;;
43152;SDS011;28756;49.064;9.290;2022-07-29T14:26:32;1.95;;;1.80;;
43152;SDS011;28756;49.064;9.290;2022-07-29T14:28:58;7.60;;;2.00;;
43152;SDS011;28756;49.064;9.290;2022-07-29T14:31:24;3.25;;;2.20;;
43152;SDS011;28756;49.064;9.290;2022-07-29T14:33:49;3.40;;;2.10;;
43152;SDS011;28756;49.064;9.290;2022-07-29T14:36:15;4.18;;;2.28;;
43152;SDS011;28756;49.064;9.290;2022-07-29T14:38:41;2.40;;;2.00;;
43152;SDS011;28756;49.064;9.290;2022-07-29T14:41:07;2.80;;;1.80;;
43152;SDS011;28756;49.064;9.290;2022-07-29T14:43:33;4.22;;;2.13;;
43152;SDS011;28756;49.064;9.290;2022-07-29T14:46:00;4.28;;;2.10;;
43152;SDS011;28756;49.064;9.290;2022-07-29T14:48:26;1.88;;;1.70;;
43152;SDS011;28756;49.064;9.290;2022-07-29T14:50:52;2.88;;;1.90;;
43152;SDS011;28756;49.064;9.290;2022-07-29T14:53:19;2.22;;;1.67;;
43152;SDS011;28756;49.064;9.290;2022-07-29T14:55:45;2.28;;;2.00;;
43152;SDS011;28756;49.064;9.290;2022-07-29T14:58:10;3.90;;;2.00;;
43152;SDS011;28756;49.064;9.290;2022-07-29T15:00:36;3.35;;;2.10;;
43152;SDS011;28756;49.064;9.290;2022-07-29T15:03:02;2.75;;;2.10;;
43152;SDS011;28756;49.064;9.290;2022-07-29T15:05:29;2.30;;;2.10;;
43152;SDS011;28756;49.064;9.290;2022-07-29T15:07:56;5.18;;;2.10;;
43152;SDS011;28756;49.064;9.290;2022-07-29T15:10:22;2.38;;;2.00;;
43152;SDS011;28756;49.064;9.290;2022-07-29T15:12:47;2.70;;;2.42;;
43152;SDS011;28756;49.064;9.290;2022-07-29T15:15:13;4.20;;;2.15;;
43152;SDS011;28756;49.064;9.290;2022-07-29T15:17:39;2.80;;;2.03;;
43152;SDS011;28756;49.064;9.290;2022-07-29T15:20:05;4.72;;;2.03;;
43152;SDS011;28756;49.064;9.290;2022-07-29T15:22:31;3.58;;;2.03;;
43152;SDS011;28756;49.064;9.290;2022-07-29T15:24:57;3.22;;;2.03;;
43152;SDS011;28756;49.064;9.290;2022-07-29T15:27:23;2.88;;;1.67;;
43152;SDS011;28756;49.064;9.290;2022-07-29T15:29:48;3.03;;;2.00;;
43152;SDS011;28756;49.064;9.290;2022-07-29T15:32:14;2.90;;;1.63;;
43152;SDS011;28756;49.064;9.290;2022-07-29T15:34:40;2.83;;;1.77;;
43152;SDS011;28756;49.064;9.290;2022-07-29T15:37:06;2.53;;;1.40;;
43152;SDS011;28756;49.064;9.290;2022-07-29T15:39:32;2.30;;;1.60;;
43152;SDS011;28756;49.064;9.290;2022-07-29T15:41:58;2.85;;;1.90;;
43152;SDS011;28756;49.064;9.290;2022-07-29T15:44:25;2.95;;;1.50;;
43152;SDS011;28756;49.064;9.290;2022-07-29T15:46:50;2.97;;;1.45;;
43152;SDS011;28756;49.064;9.290;2022-07-29T15:49:33;1.85;;;1.30;;
43152;SDS011;28756;49.064;9.290;2022-07-29T15:52:06;1.65;;;1.20;;
43152;SDS011;28756;49.064;9.290;2022-07-29T15:54:34;1.58;;;1.27;;